createdAt,value
2022-08-16T04:44:32.965Z,100.00
2022-08-16T04:47:49.533Z,100.00
2022-08-16T04:51:00.248Z,100.00
2022-08-16T04:54:04.088Z,100.00
2022-08-16T04:57:07.137Z,100.00
2022-08-16T05:00:32.423Z,100.00
2022-08-16T05:03:41.707Z,100.00
2022-08-16T05:07:03.738Z,100.00
2022-08-16T05:10:29.769Z,100.00
2022-08-16T05:13:40.557Z,100.00
2022-08-16T05:16:46.781Z,100.00
2022-08-16T05:19:58.133Z,100.00
2022-08-16T05:23:02.040Z,100.00
2022-08-16T05:26:05.615Z,100.00
2022-08-16T05:29:24.858Z,100.00
2022-08-16T05:32:47.377Z,100.00
2022-08-16T05:35:54.818Z,98.04
2022-08-16T05:38:59.594Z,94.67
2022-08-16T05:42:03.100Z,92.06
2022-08-16T05:45:07.185Z,89.19
2022-08-16T05:48:10.394Z,86.86
2022-08-16T05:51:37.660Z,85.57
2022-08-16T05:54:46.769Z,87.93
2022-08-16T05:57:52.591Z,89.03
2022-08-16T06:00:58.151Z,87.90
2022-08-16T06:04:01.649Z,87.77
2022-08-16T06:07:09.072Z,86.68
2022-08-16T06:10:32.522Z,84.03
2022-08-16T06:13:42.142Z,80.27
2022-08-16T06:16:50.724Z,80.53
2022-08-16T06:19:54.304Z,79.75
2022-08-16T06:23:03.394Z,76.52
2022-08-16T06:26:08.449Z,75.87
2022-08-16T06:29:11.878Z,74.27
2022-08-16T06:32:27.039Z,73.95
2022-08-16T06:35:35.426Z,76.81
2022-08-16T06:38:55.296Z,73.40
2022-08-16T06:42:00.373Z,66.09
2022-08-16T17:06:58.387Z,51.86
2022-08-16T17:10:03.938Z,51.64
2022-08-16T17:13:09.939Z,53.67
2022-08-16T17:16:18.728Z,52.69
2022-08-16T17:19:23.875Z,52.43
2022-08-16T17:22:32.883Z,53.89
2022-08-16T17:25:36.790Z,53.28
2022-08-16T17:29:02.044Z,50.52
2022-08-16T17:32:46.452Z,50.45
2022-08-16T17:35:36.267Z,51.71
2022-08-16T17:38:45.899Z,53.27
2022-08-16T17:41:49.110Z,51.47
2022-08-16T17:44:54.607Z,51.67
2022-08-16T17:47:58.226Z,52.90
2022-08-16T17:51:02.769Z,54.16
2022-08-16T17:54:06.804Z,54.92
2022-08-16T17:57:09.514Z,55.65
2022-08-16T18:00:20.411Z,55.98
2022-08-16T18:04:07.180Z,54.92
2022-08-16T18:06:58.446Z,56.96
2022-08-16T18:10:01.661Z,57.50
2022-08-16T18:13:10.479Z,58.93
2022-08-16T18:16:16.750Z,58.85
2022-08-16T18:19:19.717Z,59.35
2022-08-16T18:22:30.216Z,59.71
2022-08-16T18:25:34.764Z,60.84
2022-08-16T18:28:38.907Z,62.55
2022-08-16T18:31:42.246Z,62.65
2022-08-16T18:34:45.491Z,62.94
2022-08-16T18:37:48.589Z,64.86
2022-08-16T18:40:52.746Z,64.35
2022-08-16T18:44:22.947Z,65.84
2022-08-16T18:47:18.717Z,65.71
2022-08-16T18:50:26.382Z,65.41
2022-08-16T18:53:29.463Z,66.10
2022-08-16T18:56:56.155Z,66.03
2022-08-16T18:59:55.760Z,65.96
2022-08-16T19:03:08.525Z,64.67
2022-08-16T19:06:14.248Z,65.53
2022-08-16T19:09:17.271Z,65.59
2022-08-16T19:12:38.343Z,66.19
2022-08-16T19:15:45.322Z,68.69
2022-08-16T19:18:49.698Z,59.55
2022-08-16T19:21:52.515Z,64.01
2022-08-16T19:24:57.822Z,62.02
2022-08-16T19:28:01.581Z,63.37
2022-08-16T19:31:29.758Z,63.62
2022-08-16T19:34:33.677Z,63.90
2022-08-16T19:37:46.625Z,64.87
2022-08-16T19:40:54.288Z,65.74
2022-08-16T19:43:57.270Z,66.45
2022-08-16T19:47:00.533Z,67.65
2022-08-16T19:50:04.251Z,67.46
2022-08-16T19:53:12.941Z,67.32
2022-08-16T19:56:25.840Z,70.47
2022-08-16T19:59:39.598Z,70.71
2022-08-16T20:02:47.243Z,70.31
2022-08-16T20:05:51.604Z,72.04
2022-08-16T20:08:54.417Z,73.58
2022-08-16T20:11:59.196Z,74.60
2022-08-16T20:15:01.910Z,73.77
2022-08-16T20:18:17.174Z,74.83
2022-08-16T20:21:28.479Z,74.27
2022-08-16T20:24:35.635Z,74.89
2022-08-16T20:27:40.570Z,75.76
2022-08-16T20:30:45.310Z,75.48
2022-08-16T20:33:48.074Z,76.07
2022-08-16T20:36:51.121Z,76.20
2022-08-16T20:40:28.230Z,76.35
2022-08-16T20:43:19.138Z,79.25
2022-08-16T20:46:22.310Z,80.00
2022-08-16T20:49:25.323Z,81.93
2022-08-16T20:52:28.319Z,81.23
2022-08-16T20:55:33.815Z,81.88
2022-08-16T20:58:37.632Z,81.56
2022-08-16T21:01:46.366Z,82.41
2022-08-16T21:04:53.891Z,82.72
2022-08-16T21:07:56.889Z,83.61
2022-08-16T21:11:04.247Z,83.79
2022-08-16T21:14:10.921Z,84.19
2022-08-16T21:17:15.987Z,84.90
2022-08-16T21:20:22.779Z,85.85
2022-08-16T21:23:25.571Z,86.23
2022-08-16T21:26:28.503Z,86.10
2022-08-16T21:29:41.881Z,85.62
2022-08-16T21:32:46.213Z,86.03
2022-08-16T21:35:49.438Z,84.80
2022-08-16T21:38:52.888Z,84.39
2022-08-16T21:41:55.675Z,84.24
2022-08-16T21:44:58.637Z,83.87
2022-08-16T21:48:01.782Z,83.44
2022-08-16T21:51:12.182Z,82.63
2022-08-16T21:54:16.047Z,82.54
2022-08-16T21:57:22.575Z,84.91
2022-08-16T22:00:27.226Z,85.37
2022-08-16T22:03:32.957Z,86.83
2022-08-16T22:06:39.207Z,87.48
2022-08-16T22:09:43.247Z,89.77
2022-08-16T22:12:46.443Z,90.11
2022-08-16T22:15:54.591Z,90.38
2022-08-16T22:18:57.346Z,90.30
2022-08-16T22:22:01.128Z,90.83
2022-08-16T22:25:04.107Z,90.64
2022-08-16T22:28:07.295Z,91.13
2022-08-16T22:31:11.111Z,94.33
2022-08-16T22:34:14.636Z,94.58
2022-08-16T22:37:17.556Z,95.26
2022-08-16T22:40:26.401Z,94.12
2022-08-16T22:43:29.915Z,94.60
2022-08-16T22:46:34.939Z,94.83
2022-08-16T22:49:37.871Z,94.60
2022-08-16T22:52:57.111Z,94.73
2022-08-16T22:56:00.117Z,95.63
2022-08-16T22:59:03.623Z,96.08
2022-08-16T23:02:09.553Z,96.04
2022-08-16T23:05:12.507Z,95.12
2022-08-16T23:08:39.510Z,95.23
2022-08-16T23:11:40.974Z,96.33
2022-08-16T23:14:43.583Z,96.54
2022-08-16T23:17:49.875Z,97.94
2022-08-16T23:21:00.268Z,97.20
2022-08-16T23:24:03.423Z,97.09
2022-08-16T23:27:06.174Z,97.35
2022-08-16T23:30:09.812Z,97.18
2022-08-16T23:33:15.288Z,96.14
2022-08-16T23:36:18.316Z,97.09
2022-08-16T23:39:21.085Z,96.83
2022-08-16T23:42:52.372Z,96.69
2022-08-16T23:45:58.452Z,95.68
2022-08-16T23:49:57.794Z,95.32
2022-08-16T23:52:54.788Z,97.73
2022-08-16T23:55:56.342Z,97.36
2022-08-16T23:59:02.901Z,98.09
